createdAt,value
2022-09-25T00:02:07.311Z,66.63
2022-09-25T00:04:35.422Z,66.67
2022-09-25T00:07:03.814Z,66.78
2022-09-25T00:09:32.362Z,66.79
2022-09-25T00:12:01.887Z,66.70
2022-09-25T00:14:29.947Z,66.95
2022-09-25T00:16:58.410Z,66.95
2022-09-25T00:19:46.224Z,67.08
2022-09-25T00:22:14.197Z,67.13
2022-09-25T00:24:42.599Z,67.00
2022-09-25T00:27:10.678Z,67.12
2022-09-25T00:29:40.423Z,67.16
2022-09-25T00:32:12.213Z,67.14
2022-09-25T00:34:42.161Z,67.26
2022-09-25T00:37:10.195Z,67.36
2022-09-25T00:39:38.353Z,67.41
2022-09-25T00:42:06.481Z,67.18
2022-09-25T00:45:18.644Z,67.26
2022-09-25T00:48:02.756Z,67.42
2022-09-25T00:50:51.743Z,67.59
2022-09-25T00:53:33.797Z,67.71
2022-09-25T00:56:05.569Z,67.81
2022-09-25T00:58:37.591Z,67.77
2022-09-25T01:01:06.899Z,67.83
2022-09-25T01:03:35.208Z,68.01
2022-09-25T01:06:03.336Z,67.96
2022-09-25T01:08:33.263Z,68.10
2022-09-25T01:11:01.678Z,68.16
2022-09-25T01:13:30.305Z,68.38
2022-09-25T01:16:14.185Z,68.47
2022-09-25T01:18:52.200Z,68.53
2022-09-25T01:21:35.474Z,68.39
2022-09-25T01:24:34.410Z,68.55
2022-09-25T01:27:34.684Z,68.60
2022-09-25T01:30:26.478Z,68.54
2022-09-25T01:33:06.167Z,68.61
2022-09-25T01:35:38.161Z,68.60
2022-09-25T01:38:23.902Z,68.64
2022-09-25T01:41:30.498Z,68.75
2022-09-25T01:44:12.283Z,68.77
2022-09-25T01:46:48.106Z,68.71
2022-09-25T01:49:26.927Z,68.79
2022-09-25T01:51:56.193Z,68.93
2022-09-25T01:54:34.643Z,68.97
2022-09-25T01:57:24.204Z,68.99
2022-09-25T02:00:05.825Z,69.10
2022-09-25T02:02:48.476Z,69.21
2022-09-25T02:05:30.178Z,69.34
2022-09-25T02:08:05.862Z,69.50
2022-09-25T02:10:46.248Z,69.53
2022-09-25T02:13:17.901Z,69.52
2022-09-25T02:15:52.307Z,69.38
2022-09-25T02:18:41.273Z,69.63
2022-09-25T02:21:22.485Z,69.95
2022-09-25T02:24:11.625Z,69.86
2022-09-25T02:26:39.633Z,69.83
2022-09-25T02:29:08.922Z,69.86
2022-09-25T02:31:42.368Z,69.87
2022-09-25T02:34:15.089Z,70.00
2022-09-25T02:36:44.922Z,69.95
2022-09-25T02:39:18.322Z,70.08
2022-09-25T02:42:29.987Z,70.15
2022-09-25T02:45:12.139Z,70.29
2022-09-25T02:47:57.431Z,70.35
2022-09-25T02:50:46.111Z,70.27
2022-09-25T02:53:22.054Z,70.32
2022-09-25T02:56:00.349Z,70.35
2022-09-25T02:58:37.987Z,70.37
2022-09-25T03:01:09.028Z,70.48
2022-09-25T03:03:40.449Z,70.64
2022-09-25T03:06:09.152Z,70.82
2022-09-25T03:08:42.894Z,70.90
2022-09-25T03:11:15.520Z,70.90
2022-09-25T03:13:44.627Z,70.97
2022-09-25T03:16:37.049Z,71.04
2022-09-25T03:19:05.316Z,71.22
2022-09-25T03:21:33.624Z,71.22
2022-09-25T03:24:02.498Z,71.18
2022-09-25T03:26:30.984Z,71.26
2022-09-25T03:29:02.666Z,71.25
2022-09-25T03:31:31.136Z,71.48
2022-09-25T03:33:59.535Z,71.51
2022-09-25T03:36:29.974Z,71.46
2022-09-25T03:38:59.708Z,71.46
2022-09-25T03:41:31.720Z,71.48
2022-09-25T03:44:00.263Z,71.54
2022-09-25T03:46:35.276Z,71.70
2022-09-25T03:49:04.596Z,71.62
2022-09-25T03:51:35.408Z,71.72
2022-09-25T03:54:04.311Z,71.76
2022-09-25T03:56:33.038Z,71.78
2022-09-25T03:59:01.410Z,71.80
2022-09-25T04:01:32.526Z,71.66
2022-09-25T04:04:03.329Z,71.89
2022-09-25T04:06:32.705Z,71.89
2022-09-25T04:09:00.461Z,72.08
2022-09-25T04:11:28.389Z,72.13
2022-09-25T04:13:57.591Z,72.16
2022-09-25T04:16:28.626Z,72.21
2022-09-25T04:18:56.669Z,72.23
2022-09-25T04:21:24.456Z,72.26
2022-09-25T04:24:18.278Z,72.29
2022-09-25T04:26:53.807Z,72.46
2022-09-25T04:29:22.246Z,72.55
2022-09-25T04:32:10.014Z,72.72
2022-09-25T04:34:38.226Z,72.73
2022-09-25T04:37:05.962Z,72.72
2022-09-25T04:39:34.237Z,72.70
2022-09-25T04:42:03.200Z,72.76
2022-09-25T04:44:31.840Z,72.79
2022-09-25T04:47:00.888Z,72.88
2022-09-25T04:49:28.859Z,72.90
2022-09-25T04:51:57.126Z,73.00
2022-09-25T04:54:24.975Z,73.06
2022-09-25T04:56:53.646Z,73.09
2022-09-25T04:59:21.740Z,73.09
2022-09-25T05:01:49.926Z,73.13
2022-09-25T05:04:18.034Z,73.30
2022-09-25T05:06:47.031Z,73.28
2022-09-25T05:09:14.995Z,73.28
2022-09-25T05:11:42.837Z,73.32
2022-09-25T05:14:11.054Z,73.44
2022-09-25T05:16:39.050Z,73.60
2022-09-25T05:19:06.940Z,73.90
2022-09-25T05:21:35.182Z,74.20
2022-09-25T05:24:03.169Z,74.38
2022-09-25T05:26:31.068Z,74.53
2022-09-25T05:28:59.146Z,74.33
2022-09-25T05:31:26.967Z,74.55
2022-09-25T05:33:55.476Z,74.54
2022-09-25T05:36:23.618Z,74.60
2022-09-25T05:38:53.885Z,74.67
2022-09-25T05:41:22.065Z,74.46
2022-09-25T05:43:50.317Z,74.03
2022-09-25T05:46:18.255Z,74.07
2022-09-25T05:48:46.109Z,73.86
2022-09-25T05:51:13.951Z,73.80
2022-09-25T05:53:42.313Z,73.49
2022-09-25T05:56:10.088Z,73.58
2022-09-25T05:58:38.875Z,73.42
2022-09-25T06:01:07.132Z,73.23
2022-09-25T06:03:36.178Z,73.02
2022-09-25T06:06:05.345Z,72.67
2022-09-25T06:08:37.113Z,72.86
2022-09-25T06:11:05.861Z,72.79
2022-09-25T06:13:34.928Z,72.35
2022-09-25T06:16:05.764Z,71.94
2022-09-25T06:18:34.186Z,71.70
2022-09-25T06:21:05.118Z,71.66
2022-09-25T06:23:33.629Z,71.59
2022-09-25T06:26:06.491Z,71.48
2022-09-25T06:28:36.191Z,71.27
2022-09-25T06:31:05.363Z,71.42
2022-09-25T06:33:33.501Z,71.18
2022-09-25T06:36:05.233Z,71.27
2022-09-25T06:38:36.016Z,70.96
2022-09-25T06:41:04.833Z,70.89
2022-09-25T06:43:32.792Z,70.74
2022-09-25T06:46:04.467Z,70.74
2022-09-25T06:48:32.705Z,70.51
2022-09-25T06:51:01.131Z,70.47
2022-09-25T06:53:29.083Z,70.42
2022-09-25T06:55:59.052Z,70.24
2022-09-25T06:58:27.681Z,70.37
2022-09-25T07:00:56.949Z,70.27
2022-09-25T07:03:43.672Z,70.13
2022-09-25T07:06:18.163Z,70.00
2022-09-25T07:08:48.164Z,70.11
2022-09-25T07:11:19.007Z,70.13
2022-09-25T07:13:47.233Z,70.15
2022-09-25T07:16:17.425Z,70.22
2022-09-25T07:18:46.765Z,70.23
2022-09-25T07:21:17.180Z,70.21
2022-09-25T07:23:48.903Z,70.22
2022-09-25T07:26:25.003Z,70.21
2022-09-25T07:29:04.873Z,70.06
2022-09-25T07:31:34.540Z,70.11
2022-09-25T07:34:09.207Z,69.82
2022-09-25T07:36:40.074Z,70.06
2022-09-25T07:39:08.672Z,70.13
2022-09-25T07:41:39.088Z,70.16
2022-09-25T07:44:24.822Z,70.04
2022-09-25T07:46:55.138Z,69.91
2022-09-25T07:49:23.389Z,70.05
2022-09-25T07:51:51.178Z,69.93
2022-09-25T07:54:19.474Z,70.14
2022-09-25T07:56:47.409Z,70.07
2022-09-25T07:59:15.229Z,69.96
2022-09-25T08:01:46.242Z,70.08
2022-09-25T08:04:16.309Z,69.93
2022-09-25T08:06:44.422Z,70.11
2022-09-25T08:09:13.645Z,69.87
2022-09-25T08:11:44.095Z,69.96
2022-09-25T08:14:14.513Z,69.96
2022-09-25T08:16:44.197Z,69.88
2022-09-25T08:19:12.143Z,69.70
2022-09-25T08:21:40.199Z,69.57
2022-09-25T08:24:08.729Z,69.58
2022-09-25T08:26:37.180Z,69.68
2022-09-25T08:29:05.504Z,69.58
2022-09-25T08:31:34.720Z,69.77
2022-09-25T08:34:21.388Z,69.80
2022-09-25T08:36:52.954Z,69.65
2022-09-25T08:39:20.758Z,69.68
2022-09-25T08:41:52.758Z,69.66
2022-09-25T08:44:27.450Z,69.58
2022-09-25T08:47:45.048Z,69.59
2022-09-25T08:50:18.741Z,69.51
2022-09-25T08:52:54.922Z,69.66
2022-09-25T08:55:52.807Z,69.20
2022-09-25T08:58:31.358Z,68.86
2022-09-25T09:01:08.122Z,69.09
2022-09-25T09:03:52.006Z,69.51
2022-09-25T09:06:26.358Z,70.38
2022-09-25T09:09:48.609Z,70.18
2022-09-25T09:12:23.687Z,68.79
2022-09-25T09:15:06.685Z,68.28
2022-09-25T09:17:42.669Z,67.64
2022-09-25T09:20:19.448Z,68.33
2022-09-25T09:22:53.289Z,68.65
2022-09-25T09:26:05.195Z,68.00
2022-09-25T09:29:16.810Z,67.11
2022-09-25T09:32:16.066Z,66.79
2022-09-25T09:35:16.129Z,66.80
2022-09-25T09:38:09.055Z,66.35
2022-09-25T09:40:47.386Z,65.96
2022-09-25T09:43:48.989Z,65.94
2022-09-25T09:46:42.975Z,65.69
2022-09-25T10:02:56.644Z,64.16
2022-09-25T10:05:33.058Z,64.12
2022-09-25T10:08:01.065Z,63.72
2022-09-25T10:10:37.460Z,63.42
2022-09-25T10:13:13.842Z,63.29
2022-09-25T10:15:55.467Z,62.63
2022-09-25T10:18:28.162Z,62.02
2022-09-25T10:21:03.462Z,61.68
2022-09-25T10:23:40.837Z,62.18
2022-09-25T10:26:38.984Z,61.52
2022-09-25T10:29:10.616Z,62.09
2022-09-25T10:31:40.928Z,62.05
2022-09-25T10:34:17.971Z,62.04
2022-09-25T10:36:48.336Z,61.47
2022-09-25T10:39:44.654Z,60.96
2022-09-25T10:42:34.950Z,59.97
2022-09-25T10:45:36.430Z,60.01
2022-09-25T10:48:45.358Z,59.72
2022-09-25T10:51:18.313Z,59.35
2022-09-25T10:53:50.881Z,58.94
2022-09-25T10:56:22.388Z,58.68
2022-09-25T10:58:58.140Z,58.68
2022-09-25T11:01:36.809Z,58.83
2022-09-25T11:04:17.121Z,58.62
2022-09-25T11:06:54.329Z,58.41
2022-09-25T11:09:24.267Z,58.01
2022-09-25T11:11:55.057Z,58.55
2022-09-25T11:14:34.080Z,57.68
2022-09-25T11:17:06.094Z,57.39
2022-09-25T11:19:38.827Z,57.17
2022-09-25T11:23:04.801Z,56.91
2022-09-25T11:26:06.139Z,56.64
2022-09-25T11:28:40.165Z,55.93
2022-09-25T11:31:35.438Z,56.03
2022-09-25T11:34:40.470Z,56.22
2022-09-25T11:37:30.004Z,56.02
2022-09-25T11:40:35.436Z,55.97
2022-09-25T11:43:16.962Z,55.79
2022-09-25T11:45:54.276Z,55.37
2022-09-25T11:48:56.562Z,55.01
2022-09-25T11:51:36.063Z,54.95
2022-09-25T11:54:32.443Z,55.36
2022-09-25T11:57:17.063Z,55.31
2022-09-25T12:00:04.854Z,55.04
2022-09-25T12:02:46.772Z,54.72
2022-09-25T12:05:35.690Z,54.56
2022-09-25T12:08:26.915Z,54.41
2022-09-25T12:11:03.962Z,53.41
2022-09-25T12:13:39.810Z,53.64
2022-09-25T12:16:33.076Z,53.93
2022-09-25T12:19:13.146Z,53.84
2022-09-25T12:22:14.006Z,53.69
2022-09-25T12:25:09.727Z,53.58
2022-09-25T12:28:01.283Z,53.95
2022-09-25T12:30:40.770Z,54.21
2022-09-25T12:33:25.689Z,53.76
2022-09-25T12:36:10.277Z,52.97
2022-09-25T12:38:48.958Z,52.95
2022-09-25T12:41:30.027Z,52.86
2022-09-25T12:44:10.287Z,52.87
2022-09-25T12:46:47.209Z,53.16
2022-09-25T12:49:27.271Z,52.87
2022-09-25T12:52:03.404Z,52.64
2022-09-25T12:54:38.512Z,52.63
2022-09-25T12:57:12.855Z,52.69
2022-09-25T12:59:47.635Z,52.71
2022-09-25T13:02:27.831Z,52.77
2022-09-25T13:05:27.998Z,52.36
2022-09-25T13:08:24.438Z,52.45
2022-09-25T13:11:01.701Z,52.33
2022-09-25T13:13:36.459Z,52.27
2022-09-25T13:16:05.400Z,52.40
2022-09-25T13:18:35.722Z,52.17
2022-09-25T13:21:26.323Z,52.16
2022-09-25T13:23:56.851Z,52.11
2022-09-25T13:26:27.361Z,52.07
2022-09-25T13:29:15.132Z,52.27
2022-09-25T13:31:45.463Z,52.03
2022-09-25T13:34:16.423Z,51.51
2022-09-25T13:36:54.201Z,51.66
2022-09-25T13:39:44.072Z,51.82
2022-09-25T13:42:21.085Z,51.79
2022-09-25T13:45:07.795Z,51.75
2022-09-25T13:47:51.626Z,51.94
2022-09-25T13:50:29.012Z,51.65
2022-09-25T13:53:18.360Z,51.61
2022-09-25T13:55:55.804Z,51.38
2022-09-25T13:58:26.041Z,51.42
2022-09-25T14:00:57.764Z,51.26
2022-09-25T14:03:38.317Z,51.45
2022-09-25T14:06:19.784Z,51.44
2022-09-25T14:08:49.448Z,51.39
2022-09-25T14:11:23.077Z,51.23
2022-09-25T14:13:56.782Z,51.42
2022-09-25T14:16:27.524Z,51.48
2022-09-25T14:18:58.116Z,51.43
2022-09-25T14:21:28.242Z,51.11
2022-09-25T14:24:11.877Z,51.17
2022-09-25T14:26:45.575Z,51.26
2022-09-25T14:29:17.882Z,51.41
2022-09-25T14:31:54.331Z,51.31
2022-09-25T14:35:11.780Z,51.30
2022-09-25T14:38:16.970Z,51.42
2022-09-25T14:41:34.920Z,51.60
2022-09-25T14:44:26.049Z,51.25
2022-09-25T14:46:55.949Z,51.22
2022-09-25T14:49:41.063Z,51.50
2022-09-25T14:52:14.632Z,51.83
2022-09-25T14:54:44.131Z,51.69
2022-09-25T14:57:25.258Z,51.91
2022-09-25T15:00:06.118Z,51.77
2022-09-25T15:02:40.519Z,51.95
2022-09-25T15:05:33.702Z,51.97
2022-09-25T15:08:18.837Z,52.08
2022-09-25T15:10:46.651Z,52.00
2022-09-25T15:13:16.170Z,52.02
2022-09-25T15:16:15.805Z,52.15
2022-09-25T15:18:49.423Z,52.28
2022-09-25T15:21:31.053Z,52.58
2022-09-25T15:24:04.620Z,52.45
2022-09-25T15:26:39.364Z,52.64
2022-09-25T15:29:25.597Z,52.65
2022-09-25T15:31:55.193Z,53.04
2022-09-25T15:34:29.897Z,53.19
2022-09-25T15:37:26.444Z,53.46
2022-09-25T15:39:54.731Z,53.62
2022-09-25T15:42:25.187Z,54.00
2022-09-25T15:44:54.620Z,54.24
2022-09-25T15:47:35.533Z,54.47
2022-09-25T15:50:06.350Z,54.46
2022-09-25T15:52:34.698Z,54.72
2022-09-25T15:55:10.064Z,54.96
2022-09-25T15:57:37.851Z,55.45
2022-09-25T16:00:35.031Z,55.44
2022-09-25T16:03:33.000Z,55.56
2022-09-25T16:06:01.999Z,55.94
2022-09-25T16:08:33.329Z,55.99
2022-09-25T16:11:24.972Z,56.25
2022-09-25T16:14:16.682Z,56.55
2022-09-25T16:16:50.004Z,56.84
2022-09-25T16:19:32.593Z,57.09
2022-09-25T16:22:14.475Z,57.24
2022-09-25T16:24:43.310Z,57.49
2022-09-25T16:27:24.458Z,57.75
2022-09-25T16:29:55.631Z,57.98
2022-09-25T16:32:26.564Z,57.94
2022-09-25T16:35:01.234Z,58.07
2022-09-25T16:37:33.436Z,58.28
2022-09-25T16:40:33.743Z,58.58
2022-09-25T16:43:02.110Z,58.94
2022-09-25T16:45:34.307Z,58.95
2022-09-25T16:48:39.559Z,59.06
2022-09-25T16:51:22.826Z,59.43
2022-09-25T16:53:52.449Z,59.56
2022-09-25T16:56:25.822Z,59.76
2022-09-25T16:58:54.216Z,59.90
2022-09-25T17:01:26.787Z,60.13
2022-09-25T17:04:00.053Z,60.27
2022-09-25T17:06:31.272Z,60.38
2022-09-25T17:09:00.586Z,60.37
2022-09-25T17:11:29.110Z,60.56
2022-09-25T17:13:58.008Z,60.66
2022-09-25T17:16:25.946Z,61.04
2022-09-25T17:18:57.778Z,61.17
2022-09-25T17:21:29.535Z,61.25
2022-09-25T17:24:00.490Z,61.28
2022-09-25T17:26:29.217Z,61.34
2022-09-25T17:28:57.854Z,61.37
2022-09-25T17:31:26.142Z,61.58
2022-09-25T17:33:54.169Z,61.78
2022-09-25T17:36:23.242Z,61.84
2022-09-25T17:38:51.126Z,62.14
2022-09-25T17:41:24.829Z,62.27
2022-09-25T17:43:52.798Z,62.56
2022-09-25T17:46:22.037Z,62.59
2022-09-25T17:48:54.420Z,62.54
2022-09-25T17:51:27.022Z,62.66
2022-09-25T17:53:59.581Z,62.73
2022-09-25T17:56:30.260Z,62.82
2022-09-25T17:58:58.244Z,62.89
2022-09-25T18:01:36.542Z,63.06
2022-09-25T18:04:20.337Z,63.37
2022-09-25T18:06:48.629Z,63.45
2022-09-25T18:09:16.691Z,63.48
2022-09-25T18:11:46.323Z,63.60
2022-09-25T18:14:15.714Z,63.71
2022-09-25T18:16:45.267Z,63.87
2022-09-25T18:19:36.217Z,64.03
2022-09-25T18:22:22.062Z,64.16
2022-09-25T18:24:56.710Z,64.27
2022-09-25T18:27:29.076Z,64.35
2022-09-25T18:29:57.880Z,64.36
2022-09-25T18:32:25.819Z,64.42
2022-09-25T18:34:55.590Z,64.69
2022-09-25T18:37:24.875Z,64.73
2022-09-25T18:39:54.304Z,64.83
2022-09-25T18:42:22.106Z,64.99
2022-09-25T18:44:50.311Z,65.23
2022-09-25T18:47:19.197Z,65.41
2022-09-25T18:49:48.244Z,65.57
2022-09-25T18:52:16.900Z,65.59
2022-09-25T18:54:44.776Z,65.91
2022-09-25T18:57:13.581Z,66.18
2022-09-25T18:59:44.591Z,66.23
2022-09-25T19:02:35.015Z,66.26
2022-09-25T19:05:03.490Z,66.56
2022-09-25T19:07:33.190Z,66.68
2022-09-25T19:10:07.877Z,66.77
2022-09-25T19:12:35.952Z,66.94
2022-09-25T19:15:05.880Z,67.04
2022-09-25T19:17:35.443Z,67.14
2022-09-25T19:20:04.415Z,67.22
2022-09-25T19:22:33.734Z,67.48
2022-09-25T19:25:04.106Z,67.51
2022-09-25T19:27:32.334Z,67.73
2022-09-25T19:30:01.686Z,67.82
2022-09-25T19:32:29.825Z,67.90
2022-09-25T19:34:57.678Z,68.08
2022-09-25T19:37:30.042Z,68.10
2022-09-25T19:40:17.798Z,68.17
2022-09-25T19:42:47.020Z,68.40
2022-09-25T19:45:16.762Z,68.50
2022-09-25T19:47:46.063Z,68.63
2022-09-25T19:50:14.113Z,68.73
2022-09-25T19:52:46.532Z,68.88
2022-09-25T19:55:17.467Z,69.11
2022-09-25T19:57:47.632Z,69.20
2022-09-25T20:00:18.295Z,69.17
2022-09-25T20:02:47.947Z,69.25
2022-09-25T20:05:17.422Z,69.32
2022-09-25T20:07:45.669Z,69.55
2022-09-25T20:10:13.952Z,69.63
2022-09-25T20:12:42.537Z,69.77
2022-09-25T20:15:13.293Z,69.87
2022-09-25T20:17:41.769Z,69.89
2022-09-25T20:20:09.586Z,70.02
2022-09-25T20:22:38.448Z,69.91
2022-09-25T20:25:08.003Z,70.08
2022-09-25T20:27:36.154Z,70.09
2022-09-25T20:30:06.126Z,70.14
2022-09-25T20:32:35.389Z,70.24
2022-09-25T20:35:03.178Z,70.25
2022-09-25T20:37:31.731Z,70.46
2022-09-25T20:39:59.633Z,70.35
2022-09-25T20:42:27.431Z,70.58
2022-09-25T20:44:55.873Z,70.58
2022-09-25T20:47:30.281Z,70.54
2022-09-25T20:49:59.284Z,70.60
2022-09-25T20:52:28.409Z,70.62
2022-09-25T20:54:57.277Z,70.71
2022-09-25T20:57:25.147Z,70.87
2022-09-25T20:59:53.070Z,70.86
2022-09-25T21:02:21.481Z,70.77
2022-09-25T21:04:51.084Z,70.93
2022-09-25T21:07:18.982Z,71.08
2022-09-25T21:09:46.758Z,71.11
2022-09-25T21:12:15.457Z,71.12
2022-09-25T21:14:43.244Z,71.17
2022-09-25T21:17:12.210Z,71.17
2022-09-25T21:19:40.553Z,71.21
2022-09-25T21:22:08.452Z,71.18
2022-09-25T21:24:36.329Z,71.30
2022-09-25T21:27:04.142Z,71.42
2022-09-25T21:29:33.928Z,71.52
2022-09-25T21:32:02.218Z,71.62
2022-09-25T21:34:31.350Z,71.64
2022-09-25T21:36:59.141Z,71.67
2022-09-25T21:39:26.904Z,71.81
2022-09-25T21:41:54.603Z,72.00
2022-09-25T21:44:24.892Z,72.01
2022-09-25T21:46:52.820Z,71.93
2022-09-25T21:49:22.153Z,72.02
2022-09-25T21:51:50.054Z,72.00
2022-09-25T21:54:19.703Z,72.26
2022-09-25T21:56:49.352Z,72.31
2022-09-25T21:59:17.697Z,72.28
2022-09-25T22:01:46.393Z,72.39
2022-09-25T22:04:14.848Z,72.44
2022-09-25T22:06:47.520Z,72.57
2022-09-25T22:09:18.733Z,72.64
2022-09-25T22:11:48.110Z,72.91
2022-09-25T22:14:16.904Z,72.96
2022-09-25T22:16:47.559Z,73.02
2022-09-25T22:19:21.720Z,73.11
2022-09-25T22:21:51.617Z,73.28
2022-09-25T22:24:20.167Z,73.37
2022-09-25T22:26:51.717Z,73.40
2022-09-25T22:29:23.715Z,73.41
2022-09-25T22:31:51.810Z,73.48
2022-09-25T22:34:25.346Z,73.63
2022-09-25T22:36:59.164Z,73.85
2022-09-25T22:39:30.568Z,73.92
2022-09-25T22:41:58.886Z,73.91
2022-09-25T22:44:27.157Z,73.89
2022-09-25T22:46:56.601Z,73.85
2022-09-25T22:49:24.842Z,74.24
2022-09-25T22:51:52.789Z,74.31
2022-09-25T22:54:20.789Z,74.46
2022-09-25T22:56:48.975Z,74.55
2022-09-25T22:59:19.787Z,74.53
2022-09-25T23:01:51.096Z,74.52
2022-09-25T23:04:21.916Z,74.75
2022-09-25T23:06:51.010Z,74.76
2022-09-25T23:09:22.444Z,74.79
2022-09-25T23:11:50.375Z,74.91
2022-09-25T23:14:22.115Z,75.01
2022-09-25T23:16:52.448Z,74.85
2022-09-25T23:19:21.636Z,74.94
2022-09-25T23:21:52.110Z,75.09
2022-09-25T23:24:21.631Z,75.05
2022-09-25T23:26:50.289Z,75.23
2022-09-25T23:29:21.750Z,75.31
2022-09-25T23:31:50.463Z,75.42
2022-09-25T23:34:19.119Z,75.56
2022-09-25T23:36:47.046Z,75.62
2022-09-25T23:39:18.396Z,75.78
2022-09-25T23:41:48.222Z,75.89
2022-09-25T23:44:17.470Z,76.00
2022-09-25T23:46:45.428Z,76.28
2022-09-25T23:49:14.991Z,76.28
2022-09-25T23:51:43.208Z,76.30
2022-09-25T23:54:15.138Z,76.61
2022-09-25T23:56:44.154Z,76.72
2022-09-25T23:59:13.394Z,76.65
